map of LDE home
LDE - Airport
Location
City:  Tarbes/Lourdes/Pyrénées, Midi-Pyrénées, France
Near (Alt.):Ossun
ICAO:LFBT
IATA:LDE

Details
Type:Airport (Aerodrome, Airfield)
Use:Public/Civil
Latitude:43°11'08"N (43.185556)
Longitude:0°00'10"W (-0.002777)
Elevation:1260 ft (384 m)
Variation:0.53°E (WMM2015v2 magnetic declination)
0.16° annual change
Runways:1
Longest:9843 × 148 ft (3000 × 45 m), paved

Time
Time Zone:UTC+1 (DST+2)
Local Time:

Weather
METAR:LFBT 041400Z AUTO VRB03KT 9999 SCT100 BKN170 10/M05 Q1026 NOSIG
TAF:LFBT 041100Z 0412/0512 12005KT CAVOK
TEMPO 0417/0419 -RA OVC040
BECMG 0419/0420 21010KT 4000 -RA OVC020
BECMG 0423/0501 27010KT
TEMPO 0423/0510 2000 RA OVC010

Related Locations
Nearby:
Farthest:CHT: 12257 mi / 19726 km
Waitangi [Tuuta], CIT, NZ

Find:

   beyond  
but within

Other Information
Maps:
NOTAMs:
Links:
Sources:

  
  • flag of France
  • flag of Midi-Pyrénées
  

Sectional Chart

Flight Planning
at skyvector.com

Satellite Image

Google Maps Satellite view

 

Copyright © 2004-2019 Karl L. Swartz. All rights reserved.
The Great Circle Mapper name and logo are trademarks of the Great Circle Mapper.
All other trademarks mentioned herein belong to their respective owners.
Please see credits for attibutions and further copyright information.

  Follow gcmap on Facebook Follow gcmap on Twitter GCmap on LinkedIn

hCard Microformat

Geo Microformat